sensor_id;sensor_type;location;lat;lon;timestamp;P1;durP1;ratioP1;P2;durP2;ratioP2
21299;SDS011;10809;49.476;11.016;2024-01-15T00:01:37;24.67;;;12.17;;
21299;SDS011;10809;49.476;11.016;2024-01-15T00:04:11;22.57;;;10.37;;
21299;SDS011;10809;49.476;11.016;2024-01-15T00:06:41;23.57;;;10.03;;
21299;SDS011;10809;49.476;11.016;2024-01-15T00:09:12;25.00;;;10.47;;
21299;SDS011;10809;49.476;11.016;2024-01-15T00:11:45;22.80;;;10.20;;
21299;SDS011;10809;49.476;11.016;2024-01-15T00:14:16;22.20;;;10.53;;
21299;SDS011;10809;49.476;11.016;2024-01-15T00:16:50;25.97;;;10.90;;
21299;SDS011;10809;49.476;11.016;2024-01-15T00:19:21;23.27;;;9.80;;
21299;SDS011;10809;49.476;11.016;2024-01-15T00:21:52;22.87;;;10.17;;
21299;SDS011;10809;49.476;11.016;2024-01-15T00:24:22;23.97;;;11.20;;
21299;SDS011;10809;49.476;11.016;2024-01-15T00:26:52;21.57;;;9.70;;
21299;SDS011;10809;49.476;11.016;2024-01-15T00:29:23;23.60;;;10.57;;
21299;SDS011;10809;49.476;11.016;2024-01-15T00:31:54;21.37;;;9.37;;
21299;SDS011;10809;49.476;11.016;2024-01-15T00:34:24;23.50;;;10.50;;
21299;SDS011;10809;49.476;11.016;2024-01-15T00:36:54;21.60;;;10.17;;
21299;SDS011;10809;49.476;11.016;2024-01-15T00:39:24;20.30;;;10.07;;
21299;SDS011;10809;49.476;11.016;2024-01-15T00:41:56;22.70;;;10.17;;
21299;SDS011;10809;49.476;11.016;2024-01-15T00:44:26;22.53;;;10.00;;
21299;SDS011;10809;49.476;11.016;2024-01-15T00:46:56;23.90;;;10.77;;
21299;SDS011;10809;49.476;11.016;2024-01-15T00:49:27;23.13;;;10.30;;
21299;SDS011;10809;49.476;11.016;2024-01-15T00:51:57;28.10;;;10.43;;
21299;SDS011;10809;49.476;11.016;2024-01-15T00:54:27;27.97;;;10.83;;
21299;SDS011;10809;49.476;11.016;2024-01-15T00:57:04;21.50;;;10.63;;
21299;SDS011;10809;49.476;11.016;2024-01-15T00:59:34;25.53;;;10.67;;
21299;SDS011;10809;49.476;11.016;2024-01-15T01:02:04;25.30;;;11.30;;
21299;SDS011;10809;49.476;11.016;2024-01-15T01:04:35;21.97;;;10.10;;
21299;SDS011;10809;49.476;11.016;2024-01-15T01:07:05;20.27;;;9.43;;
21299;SDS011;10809;49.476;11.016;2024-01-15T01:09:35;22.07;;;10.13;;
21299;SDS011;10809;49.476;11.016;2024-01-15T01:12:06;21.50;;;9.17;;
21299;SDS011;10809;49.476;11.016;2024-01-15T01:14:36;22.63;;;10.27;;
21299;SDS011;10809;49.476;11.016;2024-01-15T01:17:06;21.87;;;9.80;;
21299;SDS011;10809;49.476;11.016;2024-01-15T01:19:37;21.87;;;9.53;;
21299;SDS011;10809;49.476;11.016;2024-01-15T01:22:08;20.60;;;9.77;;
21299;SDS011;10809;49.476;11.016;2024-01-15T01:24:41;23.77;;;10.33;;
21299;SDS011;10809;49.476;11.016;2024-01-15T01:27:11;22.20;;;9.43;;
21299;SDS011;10809;49.476;11.016;2024-01-15T01:29:42;18.50;;;8.70;;
21299;SDS011;10809;49.476;11.016;2024-01-15T01:32:12;21.10;;;9.90;;
21299;SDS011;10809;49.476;11.016;2024-01-15T01:34:42;18.13;;;8.67;;
21299;SDS011;10809;49.476;11.016;2024-01-15T01:37:13;20.80;;;9.23;;
21299;SDS011;10809;49.476;11.016;2024-01-15T01:39:44;24.23;;;9.37;;
21299;SDS011;10809;49.476;11.016;2024-01-15T01:42:14;21.23;;;10.37;;
21299;SDS011;10809;49.476;11.016;2024-01-15T01:44:45;26.30;;;10.43;;
21299;SDS011;10809;49.476;11.016;2024-01-15T01:47:18;24.17;;;11.53;;
21299;SDS011;10809;49.476;11.016;2024-01-15T01:49:49;26.47;;;11.30;;
21299;SDS011;10809;49.476;11.016;2024-01-15T01:52:19;25.13;;;12.53;;
21299;SDS011;10809;49.476;11.016;2024-01-15T01:54:50;21.47;;;10.33;;
21299;SDS011;10809;49.476;11.016;2024-01-15T01:57:22;23.23;;;10.77;;
21299;SDS011;10809;49.476;11.016;2024-01-15T01:59:52;26.87;;;11.47;;
21299;SDS011;10809;49.476;11.016;2024-01-15T02:02:26;28.50;;;12.07;;
21299;SDS011;10809;49.476;11.016;2024-01-15T02:04:56;25.10;;;11.50;;
21299;SDS011;10809;49.476;11.016;2024-01-15T02:07:27;23.70;;;10.63;;
21299;SDS011;10809;49.476;11.016;2024-01-15T02:09:57;26.90;;;11.27;;
21299;SDS011;10809;49.476;11.016;2024-01-15T02:12:28;25.90;;;10.77;;
21299;SDS011;10809;49.476;11.016;2024-01-15T02:14:58;21.50;;;10.13;;
21299;SDS011;10809;49.476;11.016;2024-01-15T02:17:32;26.10;;;11.03;;
21299;SDS011;10809;49.476;11.016;2024-01-15T02:20:02;24.23;;;10.37;;
21299;SDS011;10809;49.476;11.016;2024-01-15T02:22:32;24.70;;;10.17;;
21299;SDS011;10809;49.476;11.016;2024-01-15T02:25:03;19.10;;;8.70;;
21299;SDS011;10809;49.476;11.016;2024-01-15T02:27:40;22.50;;;10.07;;
21299;SDS011;10809;49.476;11.016;2024-01-15T02:30:11;19.67;;;8.30;;
21299;SDS011;10809;49.476;11.016;2024-01-15T02:32:42;19.70;;;9.13;;
21299;SDS011;10809;49.476;11.016;2024-01-15T02:35:12;18.53;;;8.27;;
21299;SDS011;10809;49.476;11.016;2024-01-15T02:37:43;19.97;;;9.83;;
21299;SDS011;10809;49.476;11.016;2024-01-15T02:40:19;19.83;;;9.30;;
21299;SDS011;10809;49.476;11.016;2024-01-15T02:42:50;22.60;;;10.17;;
21299;SDS011;10809;49.476;11.016;2024-01-15T02:45:21;25.63;;;9.90;;
21299;SDS011;10809;49.476;11.016;2024-01-15T02:47:52;20.93;;;9.70;;
21299;SDS011;10809;49.476;11.016;2024-01-15T02:50:22;22.73;;;9.43;;
21299;SDS011;10809;49.476;11.016;2024-01-15T02:52:53;22.50;;;10.43;;
21299;SDS011;10809;49.476;11.016;2024-01-15T02:55:23;21.13;;;8.50;;
21299;SDS011;10809;49.476;11.016;2024-01-15T02:57:53;16.33;;;8.00;;
21299;SDS011;10809;49.476;11.016;2024-01-15T03:00:23;20.97;;;9.20;;
21299;SDS011;10809;49.476;11.016;2024-01-15T03:02:55;17.00;;;8.23;;
21299;SDS011;10809;49.476;11.016;2024-01-15T03:05:25;16.20;;;7.77;;
21299;SDS011;10809;49.476;11.016;2024-01-15T03:07:55;20.27;;;8.53;;
21299;SDS011;10809;49.476;11.016;2024-01-15T03:10:26;17.80;;;8.87;;
21299;SDS011;10809;49.476;11.016;2024-01-15T03:12:57;12.93;;;7.10;;
21299;SDS011;10809;49.476;11.016;2024-01-15T03:15:27;17.50;;;7.67;;
21299;SDS011;10809;49.476;11.016;2024-01-15T03:17:57;14.60;;;7.37;;
21299;SDS011;10809;49.476;11.016;2024-01-15T03:20:28;15.63;;;8.03;;
21299;SDS011;10809;49.476;11.016;2024-01-15T03:22:58;21.50;;;8.97;;
21299;SDS011;10809;49.476;11.016;2024-01-15T03:25:28;20.90;;;8.67;;
21299;SDS011;10809;49.476;11.016;2024-01-15T03:27:58;16.07;;;7.17;;
21299;SDS011;10809;49.476;11.016;2024-01-15T03:30:29;14.33;;;7.33;;
21299;SDS011;10809;49.476;11.016;2024-01-15T03:32:59;19.00;;;8.40;;
21299;SDS011;10809;49.476;11.016;2024-01-15T03:35:29;17.83;;;7.57;;
21299;SDS011;10809;49.476;11.016;2024-01-15T03:38:00;16.17;;;7.83;;
21299;SDS011;10809;49.476;11.016;2024-01-15T03:40:31;14.97;;;6.90;;
21299;SDS011;10809;49.476;11.016;2024-01-15T03:43:01;16.60;;;7.73;;
21299;SDS011;10809;49.476;11.016;2024-01-15T03:45:31;17.70;;;7.20;;
21299;SDS011;10809;49.476;11.016;2024-01-15T03:48:02;13.60;;;6.80;;
21299;SDS011;10809;49.476;11.016;2024-01-15T03:50:32;12.60;;;7.00;;
21299;SDS011;10809;49.476;11.016;2024-01-15T03:53:02;17.47;;;8.57;;
21299;SDS011;10809;49.476;11.016;2024-01-15T03:55:33;15.87;;;7.87;;
21299;SDS011;10809;49.476;11.016;2024-01-15T03:58:03;16.80;;;6.87;;
21299;SDS011;10809;49.476;11.016;2024-01-15T04:00:34;15.73;;;7.83;;
21299;SDS011;10809;49.476;11.016;2024-01-15T04:03:04;17.60;;;8.07;;
21299;SDS011;10809;49.476;11.016;2024-01-15T04:05:34;17.23;;;7.47;;
21299;SDS011;10809;49.476;11.016;2024-01-15T04:08:05;15.50;;;7.10;;
21299;SDS011;10809;49.476;11.016;2024-01-15T04:10:36;15.37;;;8.20;;
21299;SDS011;10809;49.476;11.016;2024-01-15T04:13:06;13.93;;;7.10;;
21299;SDS011;10809;49.476;11.016;2024-01-15T04:15:37;13.93;;;7.23;;
21299;SDS011;10809;49.476;11.016;2024-01-15T04:18:08;15.77;;;7.03;;
21299;SDS011;10809;49.476;11.016;2024-01-15T04:20:38;13.57;;;6.00;;
21299;SDS011;10809;49.476;11.016;2024-01-15T04:23:09;11.37;;;5.67;;
21299;SDS011;10809;49.476;11.016;2024-01-15T04:25:39;11.90;;;6.67;;
21299;SDS011;10809;49.476;11.016;2024-01-15T04:28:12;12.07;;;6.60;;
21299;SDS011;10809;49.476;11.016;2024-01-15T04:30:42;13.93;;;7.00;;
21299;SDS011;10809;49.476;11.016;2024-01-15T04:33:13;13.90;;;7.10;;
21299;SDS011;10809;49.476;11.016;2024-01-15T04:35:43;14.90;;;7.10;;
21299;SDS011;10809;49.476;11.016;2024-01-15T04:38:13;13.80;;;7.10;;
21299;SDS011;10809;49.476;11.016;2024-01-15T04:40:44;12.87;;;6.73;;
21299;SDS011;10809;49.476;11.016;2024-01-15T04:43:14;16.00;;;7.43;;
21299;SDS011;10809;49.476;11.016;2024-01-15T04:45:44;15.90;;;7.60;;
21299;SDS011;10809;49.476;11.016;2024-01-15T04:48:15;14.53;;;7.57;;
21299;SDS011;10809;49.476;11.016;2024-01-15T04:50:45;14.57;;;7.40;;
21299;SDS011;10809;49.476;11.016;2024-01-15T04:53:16;14.10;;;7.07;;
21299;SDS011;10809;49.476;11.016;2024-01-15T04:55:46;11.23;;;5.80;;
21299;SDS011;10809;49.476;11.016;2024-01-15T04:58:17;14.50;;;7.10;;
21299;SDS011;10809;49.476;11.016;2024-01-15T05:00:47;21.87;;;8.43;;
21299;SDS011;10809;49.476;11.016;2024-01-15T05:03:17;16.10;;;7.53;;
21299;SDS011;10809;49.476;11.016;2024-01-15T05:05:48;18.63;;;8.90;;
21299;SDS011;10809;49.476;11.016;2024-01-15T05:08:18;16.77;;;7.70;;
21299;SDS011;10809;49.476;11.016;2024-01-15T05:10:48;14.57;;;7.67;;
21299;SDS011;10809;49.476;11.016;2024-01-15T05:13:19;18.77;;;8.53;;
21299;SDS011;10809;49.476;11.016;2024-01-15T05:15:49;17.33;;;8.17;;
21299;SDS011;10809;49.476;11.016;2024-01-15T05:18:19;19.00;;;7.60;;
21299;SDS011;10809;49.476;11.016;2024-01-15T05:20:49;12.37;;;6.67;;
21299;SDS011;10809;49.476;11.016;2024-01-15T05:23:20;13.57;;;6.73;;
21299;SDS011;10809;49.476;11.016;2024-01-15T05:25:50;12.97;;;6.87;;
21299;SDS011;10809;49.476;11.016;2024-01-15T05:28:20;14.13;;;6.50;;
21299;SDS011;10809;49.476;11.016;2024-01-15T05:30:51;16.30;;;6.17;;
21299;SDS011;10809;49.476;11.016;2024-01-15T05:33:23;12.97;;;6.53;;
21299;SDS011;10809;49.476;11.016;2024-01-15T05:35:53;13.10;;;6.53;;
21299;SDS011;10809;49.476;11.016;2024-01-15T05:38:24;15.93;;;6.93;;
21299;SDS011;10809;49.476;11.016;2024-01-15T05:40:54;10.77;;;5.80;;
21299;SDS011;10809;49.476;11.016;2024-01-15T05:43:24;12.83;;;6.33;;
21299;SDS011;10809;49.476;11.016;2024-01-15T05:45:55;12.40;;;6.40;;
21299;SDS011;10809;49.476;11.016;2024-01-15T05:48:25;12.70;;;6.00;;
21299;SDS011;10809;49.476;11.016;2024-01-15T05:50:55;11.10;;;5.70;;
21299;SDS011;10809;49.476;11.016;2024-01-15T05:53:25;9.00;;;5.07;;
21299;SDS011;10809;49.476;11.016;2024-01-15T05:55:56;12.30;;;6.27;;
21299;SDS011;10809;49.476;11.016;2024-01-15T05:58:26;15.33;;;7.70;;
21299;SDS011;10809;49.476;11.016;2024-01-15T06:00:57;16.03;;;7.00;;
21299;SDS011;10809;49.476;11.016;2024-01-15T06:03:27;14.43;;;5.53;;
21299;SDS011;10809;49.476;11.016;2024-01-15T06:05:57;11.13;;;5.70;;
21299;SDS011;10809;49.476;11.016;2024-01-15T06:08:28;13.03;;;6.07;;
21299;SDS011;10809;49.476;11.016;2024-01-15T06:10:58;11.30;;;5.83;;
21299;SDS011;10809;49.476;11.016;2024-01-15T06:13:28;9.83;;;5.07;;
21299;SDS011;10809;49.476;11.016;2024-01-15T06:15:59;12.87;;;6.27;;
21299;SDS011;10809;49.476;11.016;2024-01-15T06:18:29;11.67;;;6.67;;
21299;SDS011;10809;49.476;11.016;2024-01-15T06:20:59;12.50;;;6.27;;
21299;SDS011;10809;49.476;11.016;2024-01-15T06:23:29;10.60;;;5.00;;
21299;SDS011;10809;49.476;11.016;2024-01-15T06:26:00;11.97;;;5.83;;
21299;SDS011;10809;49.476;11.016;2024-01-15T06:28:30;12.93;;;5.67;;
21299;SDS011;10809;49.476;11.016;2024-01-15T06:31:01;12.87;;;6.37;;
21299;SDS011;10809;49.476;11.016;2024-01-15T06:33:31;11.63;;;6.27;;
21299;SDS011;10809;49.476;11.016;2024-01-15T06:36:04;10.77;;;5.40;;
21299;SDS011;10809;49.476;11.016;2024-01-15T06:38:35;10.77;;;6.00;;
21299;SDS011;10809;49.476;11.016;2024-01-15T06:41:06;9.60;;;5.63;;
21299;SDS011;10809;49.476;11.016;2024-01-15T06:43:39;10.07;;;5.50;;
21299;SDS011;10809;49.476;11.016;2024-01-15T06:46:09;12.07;;;5.97;;
21299;SDS011;10809;49.476;11.016;2024-01-15T06:48:41;11.53;;;5.50;;
21299;SDS011;10809;49.476;11.016;2024-01-15T06:51:12;12.47;;;5.03;;
21299;SDS011;10809;49.476;11.016;2024-01-15T06:53:42;11.50;;;5.43;;
21299;SDS011;10809;49.476;11.016;2024-01-15T06:56:12;7.80;;;4.53;;
21299;SDS011;10809;49.476;11.016;2024-01-15T06:58:43;10.33;;;5.27;;
21299;SDS011;10809;49.476;11.016;2024-01-15T07:01:13;13.13;;;5.97;;
21299;SDS011;10809;49.476;11.016;2024-01-15T07:03:47;9.10;;;5.37;;
21299;SDS011;10809;49.476;11.016;2024-01-15T07:06:17;10.50;;;5.10;;
21299;SDS011;10809;49.476;11.016;2024-01-15T07:08:50;11.10;;;6.50;;
21299;SDS011;10809;49.476;11.016;2024-01-15T07:11:20;12.37;;;6.60;;
21299;SDS011;10809;49.476;11.016;2024-01-15T07:13:51;12.47;;;5.63;;
21299;SDS011;10809;49.476;11.016;2024-01-15T07:16:21;13.23;;;5.63;;
21299;SDS011;10809;49.476;11.016;2024-01-15T07:18:51;13.47;;;5.97;;
21299;SDS011;10809;49.476;11.016;2024-01-15T07:21:22;10.97;;;6.37;;
21299;SDS011;10809;49.476;11.016;2024-01-15T07:23:52;10.20;;;5.33;;
21299;SDS011;10809;49.476;11.016;2024-01-15T07:26:22;14.60;;;6.43;;
21299;SDS011;10809;49.476;11.016;2024-01-15T07:28:53;12.70;;;6.03;;
21299;SDS011;10809;49.476;11.016;2024-01-15T07:31:23;10.87;;;5.40;;
21299;SDS011;10809;49.476;11.016;2024-01-15T07:33:53;9.97;;;5.70;;
21299;SDS011;10809;49.476;11.016;2024-01-15T07:36:24;10.90;;;5.80;;
21299;SDS011;10809;49.476;11.016;2024-01-15T07:38:55;9.37;;;5.20;;
21299;SDS011;10809;49.476;11.016;2024-01-15T07:41:25;9.37;;;5.23;;
21299;SDS011;10809;49.476;11.016;2024-01-15T07:43:56;10.97;;;5.80;;
21299;SDS011;10809;49.476;11.016;2024-01-15T07:46:26;8.93;;;4.93;;
21299;SDS011;10809;49.476;11.016;2024-01-15T07:48:56;9.30;;;5.37;;
21299;SDS011;10809;49.476;11.016;2024-01-15T07:51:27;12.30;;;5.50;;
21299;SDS011;10809;49.476;11.016;2024-01-15T07:53:58;11.00;;;4.87;;
21299;SDS011;10809;49.476;11.016;2024-01-15T07:56:28;8.07;;;5.03;;
21299;SDS011;10809;49.476;11.016;2024-01-15T07:58:58;11.53;;;5.47;;
21299;SDS011;10809;49.476;11.016;2024-01-15T08:01:29;9.37;;;5.77;;
21299;SDS011;10809;49.476;11.016;2024-01-15T08:03:59;8.70;;;4.40;;
21299;SDS011;10809;49.476;11.016;2024-01-15T08:06:30;7.47;;;4.40;;
21299;SDS011;10809;49.476;11.016;2024-01-15T08:09:00;11.77;;;5.67;;
21299;SDS011;10809;49.476;11.016;2024-01-15T08:11:30;9.63;;;5.70;;
21299;SDS011;10809;49.476;11.016;2024-01-15T08:14:00;9.00;;;4.80;;
21299;SDS011;10809;49.476;11.016;2024-01-15T08:16:34;9.47;;;5.30;;
21299;SDS011;10809;49.476;11.016;2024-01-15T08:19:05;11.90;;;5.73;;
21299;SDS011;10809;49.476;11.016;2024-01-15T08:21:38;10.43;;;5.90;;
21299;SDS011;10809;49.476;11.016;2024-01-15T08:24:08;7.50;;;4.67;;
21299;SDS011;10809;49.476;11.016;2024-01-15T08:26:39;10.00;;;5.50;;
21299;SDS011;10809;49.476;11.016;2024-01-15T08:29:09;11.53;;;5.43;;
21299;SDS011;10809;49.476;11.016;2024-01-15T08:31:40;8.70;;;4.60;;
21299;SDS011;10809;49.476;11.016;2024-01-15T08:34:10;10.90;;;5.97;;
21299;SDS011;10809;49.476;11.016;2024-01-15T08:36:40;14.60;;;5.50;;
21299;SDS011;10809;49.476;11.016;2024-01-15T08:39:10;9.33;;;5.50;;
21299;SDS011;10809;49.476;11.016;2024-01-15T08:41:41;9.43;;;5.67;;
21299;SDS011;10809;49.476;11.016;2024-01-15T08:44:11;9.07;;;4.90;;
21299;SDS011;10809;49.476;11.016;2024-01-15T08:46:42;8.93;;;5.00;;
21299;SDS011;10809;49.476;11.016;2024-01-15T08:49:12;10.30;;;5.33;;
21299;SDS011;10809;49.476;11.016;2024-01-15T08:51:45;10.43;;;5.30;;
21299;SDS011;10809;49.476;11.016;2024-01-15T08:54:16;9.60;;;5.53;;
21299;SDS011;10809;49.476;11.016;2024-01-15T08:56:48;9.90;;;5.27;;
21299;SDS011;10809;49.476;11.016;2024-01-15T08:59:21;10.10;;;5.57;;
21299;SDS011;10809;49.476;11.016;2024-01-15T09:01:55;8.40;;;5.23;;
21299;SDS011;10809;49.476;11.016;2024-01-15T09:04:27;8.00;;;4.73;;
21299;SDS011;10809;49.476;11.016;2024-01-15T09:06:57;8.23;;;5.23;;
21299;SDS011;10809;49.476;11.016;2024-01-15T09:09:28;10.07;;;5.17;;
21299;SDS011;10809;49.476;11.016;2024-01-15T09:11:58;7.77;;;4.50;;
21299;SDS011;10809;49.476;11.016;2024-01-15T09:14:28;5.63;;;3.57;;
21299;SDS011;10809;49.476;11.016;2024-01-15T09:16:59;12.87;;;4.60;;
21299;SDS011;10809;49.476;11.016;2024-01-15T09:19:29;8.93;;;4.37;;
21299;SDS011;10809;49.476;11.016;2024-01-15T09:21:59;7.57;;;4.30;;
21299;SDS011;10809;49.476;11.016;2024-01-15T09:24:30;11.63;;;5.30;;
21299;SDS011;10809;49.476;11.016;2024-01-15T09:27:00;9.90;;;4.80;;
21299;SDS011;10809;49.476;11.016;2024-01-15T09:29:31;9.97;;;4.10;;
21299;SDS011;10809;49.476;11.016;2024-01-15T09:32:02;7.17;;;4.40;;
21299;SDS011;10809;49.476;11.016;2024-01-15T09:34:33;8.83;;;4.53;;
21299;SDS011;10809;49.476;11.016;2024-01-15T09:37:04;8.00;;;4.37;;
21299;SDS011;10809;49.476;11.016;2024-01-15T09:39:35;10.90;;;5.33;;
21299;SDS011;10809;49.476;11.016;2024-01-15T09:42:05;8.97;;;4.93;;
21299;SDS011;10809;49.476;11.016;2024-01-15T09:44:42;8.20;;;4.27;;
21299;SDS011;10809;49.476;11.016;2024-01-15T09:47:16;10.10;;;5.00;;
21299;SDS011;10809;49.476;11.016;2024-01-15T09:49:48;10.20;;;5.03;;
21299;SDS011;10809;49.476;11.016;2024-01-15T09:52:24;7.40;;;4.80;;
21299;SDS011;10809;49.476;11.016;2024-01-15T09:54:55;10.97;;;5.27;;
21299;SDS011;10809;49.476;11.016;2024-01-15T09:57:27;9.40;;;5.03;;
21299;SDS011;10809;49.476;11.016;2024-01-15T09:59:57;10.50;;;4.73;;
21299;SDS011;10809;49.476;11.016;2024-01-15T10:02:31;7.97;;;4.20;;
21299;SDS011;10809;49.476;11.016;2024-01-15T10:05:01;7.27;;;4.13;;
21299;SDS011;10809;49.476;11.016;2024-01-15T10:07:33;6.67;;;3.70;;
21299;SDS011;10809;49.476;11.016;2024-01-15T10:10:06;8.53;;;4.67;;
21299;SDS011;10809;49.476;11.016;2024-01-15T10:12:37;7.77;;;4.53;;
21299;SDS011;10809;49.476;11.016;2024-01-15T10:15:09;8.47;;;4.97;;
21299;SDS011;10809;49.476;11.016;2024-01-15T10:17:41;8.70;;;4.37;;
21299;SDS011;10809;49.476;11.016;2024-01-15T10:20:12;5.90;;;3.50;;
21299;SDS011;10809;49.476;11.016;2024-01-15T10:22:42;7.87;;;4.93;;
21299;SDS011;10809;49.476;11.016;2024-01-15T10:25:16;7.83;;;4.17;;
21299;SDS011;10809;49.476;11.016;2024-01-15T10:28:02;7.57;;;4.93;;
21299;SDS011;10809;49.476;11.016;2024-01-15T10:30:33;8.17;;;4.37;;
21299;SDS011;10809;49.476;11.016;2024-01-15T10:33:04;8.30;;;4.37;;
21299;SDS011;10809;49.476;11.016;2024-01-15T10:35:35;8.97;;;4.73;;
21299;SDS011;10809;49.476;11.016;2024-01-15T10:38:05;6.43;;;4.40;;
21299;SDS011;10809;49.476;11.016;2024-01-15T10:40:36;5.90;;;3.67;;
21299;SDS011;10809;49.476;11.016;2024-01-15T10:43:06;8.37;;;3.90;;
21299;SDS011;10809;49.476;11.016;2024-01-15T10:45:36;7.13;;;4.27;;
21299;SDS011;10809;49.476;11.016;2024-01-15T10:48:07;7.20;;;3.80;;
21299;SDS011;10809;49.476;11.016;2024-01-15T10:50:37;6.67;;;4.20;;
21299;SDS011;10809;49.476;11.016;2024-01-15T10:53:09;7.10;;;4.20;;
21299;SDS011;10809;49.476;11.016;2024-01-15T10:55:42;6.30;;;4.43;;
21299;SDS011;10809;49.476;11.016;2024-01-15T10:58:13;10.23;;;4.30;;
21299;SDS011;10809;49.476;11.016;2024-01-15T11:00:45;7.40;;;4.20;;
21299;SDS011;10809;49.476;11.016;2024-01-15T11:03:15;7.60;;;4.77;;
21299;SDS011;10809;49.476;11.016;2024-01-15T11:05:46;7.57;;;4.17;;
21299;SDS011;10809;49.476;11.016;2024-01-15T11:08:17;5.27;;;3.83;;
21299;SDS011;10809;49.476;11.016;2024-01-15T11:10:52;6.60;;;4.13;;
21299;SDS011;10809;49.476;11.016;2024-01-15T11:13:39;6.67;;;3.70;;
21299;SDS011;10809;49.476;11.016;2024-01-15T11:16:10;6.77;;;4.30;;
21299;SDS011;10809;49.476;11.016;2024-01-15T11:18:43;7.17;;;4.07;;
21299;SDS011;10809;49.476;11.016;2024-01-15T11:21:32;6.03;;;4.13;;
21299;SDS011;10809;49.476;11.016;2024-01-15T11:24:02;6.43;;;4.30;;
21299;SDS011;10809;49.476;11.016;2024-01-15T11:26:34;7.20;;;4.17;;
21299;SDS011;10809;49.476;11.016;2024-01-15T11:29:28;6.30;;;4.23;;
21299;SDS011;10809;49.476;11.016;2024-01-15T11:43:04;6.83;;;4.40;;
21299;SDS011;10809;49.476;11.016;2024-01-15T11:45:36;7.13;;;4.20;;
21299;SDS011;10809;49.476;11.016;2024-01-15T11:50:43;15.10;;;8.83;;
21299;SDS011;10809;49.476;11.016;2024-01-15T11:56:17;6.53;;;3.90;;
21299;SDS011;10809;49.476;11.016;2024-01-15T11:58:48;11.20;;;5.17;;
21299;SDS011;10809;49.476;11.016;2024-01-15T12:01:20;7.27;;;4.30;;
21299;SDS011;10809;49.476;11.016;2024-01-15T12:03:51;7.10;;;4.10;;
21299;SDS011;10809;49.476;11.016;2024-01-15T12:06:21;6.47;;;3.67;;
21299;SDS011;10809;49.476;11.016;2024-01-15T12:09:05;7.10;;;4.17;;
21299;SDS011;10809;49.476;11.016;2024-01-15T12:11:36;6.00;;;4.23;;
21299;SDS011;10809;49.476;11.016;2024-01-15T12:14:12;8.93;;;3.63;;
21299;SDS011;10809;49.476;11.016;2024-01-15T12:16:43;4.50;;;3.47;;
21299;SDS011;10809;49.476;11.016;2024-01-15T12:19:14;5.50;;;3.73;;
21299;SDS011;10809;49.476;11.016;2024-01-15T12:21:45;5.60;;;4.10;;
21299;SDS011;10809;49.476;11.016;2024-01-15T12:24:16;6.50;;;3.93;;
21299;SDS011;10809;49.476;11.016;2024-01-15T12:26:47;5.57;;;4.20;;
21299;SDS011;10809;49.476;11.016;2024-01-15T12:29:18;4.83;;;3.43;;
21299;SDS011;10809;49.476;11.016;2024-01-15T12:31:48;4.17;;;3.37;;
21299;SDS011;10809;49.476;11.016;2024-01-15T12:34:18;5.20;;;3.60;;
21299;SDS011;10809;49.476;11.016;2024-01-15T12:36:50;5.17;;;2.90;;
21299;SDS011;10809;49.476;11.016;2024-01-15T12:39:20;6.40;;;3.53;;
21299;SDS011;10809;49.476;11.016;2024-01-15T12:41:51;4.03;;;2.93;;
21299;SDS011;10809;49.476;11.016;2024-01-15T12:44:21;4.37;;;3.10;;
21299;SDS011;10809;49.476;11.016;2024-01-15T12:46:52;6.03;;;3.23;;
21299;SDS011;10809;49.476;11.016;2024-01-15T12:49:26;4.93;;;3.40;;
21299;SDS011;10809;49.476;11.016;2024-01-15T12:51:56;4.13;;;2.67;;
21299;SDS011;10809;49.476;11.016;2024-01-15T12:54:28;5.03;;;3.23;;
21299;SDS011;10809;49.476;11.016;2024-01-15T12:56:58;5.70;;;3.33;;
21299;SDS011;10809;49.476;11.016;2024-01-15T12:59:31;6.03;;;3.70;;
21299;SDS011;10809;49.476;11.016;2024-01-15T13:02:01;6.03;;;3.30;;
21299;SDS011;10809;49.476;11.016;2024-01-15T13:04:32;5.03;;;2.93;;
21299;SDS011;10809;49.476;11.016;2024-01-15T13:07:03;7.37;;;3.47;;
21299;SDS011;10809;49.476;11.016;2024-01-15T13:09:33;4.80;;;2.90;;
21299;SDS011;10809;49.476;11.016;2024-01-15T13:12:05;3.50;;;2.57;;
21299;SDS011;10809;49.476;11.016;2024-01-15T13:14:35;4.70;;;2.73;;
21299;SDS011;10809;49.476;11.016;2024-01-15T13:17:06;6.17;;;2.50;;
21299;SDS011;10809;49.476;11.016;2024-01-15T13:19:36;3.67;;;2.57;;
21299;SDS011;10809;49.476;11.016;2024-01-15T13:22:07;3.17;;;2.40;;
21299;SDS011;10809;49.476;11.016;2024-01-15T13:24:39;3.43;;;2.67;;
21299;SDS011;10809;49.476;11.016;2024-01-15T13:27:09;3.83;;;2.33;;
21299;SDS011;10809;49.476;11.016;2024-01-15T13:29:40;3.80;;;2.70;;
21299;SDS011;10809;49.476;11.016;2024-01-15T13:32:10;5.67;;;2.77;;
21299;SDS011;10809;49.476;11.016;2024-01-15T13:34:47;4.67;;;2.77;;
21299;SDS011;10809;49.476;11.016;2024-01-15T13:37:17;3.93;;;2.57;;
21299;SDS011;10809;49.476;11.016;2024-01-15T13:39:48;3.43;;;2.67;;
21299;SDS011;10809;49.476;11.016;2024-01-15T13:42:18;3.10;;;2.57;;
21299;SDS011;10809;49.476;11.016;2024-01-15T13:44:48;4.87;;;2.70;;
21299;SDS011;10809;49.476;11.016;2024-01-15T13:47:18;2.87;;;1.90;;
21299;SDS011;10809;49.476;11.016;2024-01-15T13:49:52;4.17;;;2.60;;
21299;SDS011;10809;49.476;11.016;2024-01-15T13:52:23;3.10;;;2.00;;
21299;SDS011;10809;49.476;11.016;2024-01-15T13:54:53;2.80;;;2.00;;
21299;SDS011;10809;49.476;11.016;2024-01-15T13:57:24;3.17;;;2.33;;
21299;SDS011;10809;49.476;11.016;2024-01-15T13:59:54;3.17;;;2.50;;
21299;SDS011;10809;49.476;11.016;2024-01-15T14:02:25;2.67;;;2.43;;
21299;SDS011;10809;49.476;11.016;2024-01-15T14:04:55;3.40;;;2.37;;
21299;SDS011;10809;49.476;11.016;2024-01-15T14:07:25;2.40;;;2.10;;
21299;SDS011;10809;49.476;11.016;2024-01-15T14:09:56;4.43;;;2.50;;
21299;SDS011;10809;49.476;11.016;2024-01-15T14:12:27;3.17;;;2.43;;
21299;SDS011;10809;49.476;11.016;2024-01-15T14:14:58;6.33;;;2.70;;
21299;SDS011;10809;49.476;11.016;2024-01-15T14:17:34;9.80;;;2.60;;
21299;SDS011;10809;49.476;11.016;2024-01-15T14:20:05;3.20;;;2.50;;
21299;SDS011;10809;49.476;11.016;2024-01-15T14:22:36;4.13;;;2.40;;
21299;SDS011;10809;49.476;11.016;2024-01-15T14:25:07;3.03;;;2.30;;
21299;SDS011;10809;49.476;11.016;2024-01-15T14:27:37;3.07;;;2.13;;
21299;SDS011;10809;49.476;11.016;2024-01-15T14:30:08;5.57;;;2.93;;
21299;SDS011;10809;49.476;11.016;2024-01-15T14:32:38;4.60;;;3.23;;
21299;SDS011;10809;49.476;11.016;2024-01-15T14:35:09;3.50;;;2.23;;
21299;SDS011;10809;49.476;11.016;2024-01-15T14:37:43;3.63;;;2.70;;
21299;SDS011;10809;49.476;11.016;2024-01-15T14:40:13;3.70;;;2.37;;
21299;SDS011;10809;49.476;11.016;2024-01-15T14:42:45;3.17;;;2.13;;
21299;SDS011;10809;49.476;11.016;2024-01-15T14:45:16;7.80;;;2.57;;
21299;SDS011;10809;49.476;11.016;2024-01-15T14:47:46;3.10;;;2.27;;
21299;SDS011;10809;49.476;11.016;2024-01-15T14:50:16;1.93;;;1.73;;
21299;SDS011;10809;49.476;11.016;2024-01-15T14:52:47;4.20;;;2.60;;
21299;SDS011;10809;49.476;11.016;2024-01-15T14:55:17;2.40;;;2.17;;
21299;SDS011;10809;49.476;11.016;2024-01-15T14:57:47;3.27;;;2.40;;
21299;SDS011;10809;49.476;11.016;2024-01-15T15:00:19;2.73;;;2.37;;
21299;SDS011;10809;49.476;11.016;2024-01-15T15:02:49;2.63;;;2.20;;
21299;SDS011;10809;49.476;11.016;2024-01-15T15:05:20;2.87;;;2.00;;